AEZ2114 LIRF-LICB
Flight info
| Callsign | AEZ2114 |
|---|---|
| Flight time | 0h 57m |
| Altitude | 37000 |
| Route | RIFFI DCT BEROL DCT ROSAS DCT LIBRO |
| Aircraft | B738/M-SDE2E3FGHIRWXY/LB1 |
Departure
| Time | 2026-04-16 11:10 |
|---|---|
| Airport | Rome–Fiumicino Leonardo da Vinci International Airport (LIRF) |
Arrival
| Time | 2026-04-16 12:08 |
|---|---|
| Airport | Comiso Airport (LICB) |
| Time | Latitude | Longitude | Altitude | Speed | Heading |
|---|---|---|---|---|---|
| 2026-04-16 10:51 | 41.80056 | 12.26543 | 14 ft | 0 kts | 250° |
| 2026-04-16 10:59 | 41.80051 | 12.26524 | 14 ft | 5 kts | 251° |
| 2026-04-16 11:00 | 41.80079 | 12.26470 | 14 ft | 11 kts | 332° |
| 2026-04-16 11:00 | 41.80132 | 12.26411 | 13 ft | 9 kts | 277° |
| 2026-04-16 11:00 | 41.80116 | 12.26334 | 13 ft | 8 kts | 248° |
| 2026-04-16 11:00 | 41.80126 | 12.26259 | 13 ft | 8 kts | 295° |
| 2026-04-16 11:01 | 41.80151 | 12.26191 | 13 ft | 8 kts | 296° |
| 2026-04-16 11:01 | 41.80166 | 12.26145 | 13 ft | 0 kts | 294° |
| 2026-04-16 11:02 | 41.80167 | 12.26144 | 13 ft | 1 kts | 294° |
| 2026-04-16 11:02 | 41.80176 | 12.26117 | 15 ft | 7 kts | 294° |
| 2026-04-16 11:02 | 41.80214 | 12.26050 | 14 ft | 11 kts | 338° |
| 2026-04-16 11:03 | 41.80282 | 12.26075 | 13 ft | 10 kts | 25° |
| 2026-04-16 11:03 | 41.80346 | 12.26116 | 16 ft | 10 kts | 25° |
| 2026-04-16 11:03 | 41.80471 | 12.26187 | 15 ft | 10 kts | 10° |
| 2026-04-16 11:04 | 41.80525 | 12.26229 | 15 ft | 9 kts | 60° |
| 2026-04-16 11:04 | 41.80548 | 12.26309 | 17 ft | 9 kts | 70° |
| 2026-04-16 11:04 | 41.80574 | 12.26404 | 15 ft | 13 kts | 70° |
| 2026-04-16 11:04 | 41.80613 | 12.26543 | 15 ft | 19 kts | 70° |
| 2026-04-16 11:05 | 41.80664 | 12.26730 | 15 ft | 24 kts | 70° |
| 2026-04-16 11:05 | 41.80723 | 12.26945 | 14 ft | 21 kts | 69° |
| 2026-04-16 11:05 | 41.80766 | 12.27037 | 12 ft | 8 kts | 25° |
| 2026-04-16 11:05 | 41.80821 | 12.27035 | 12 ft | 8 kts | 341° |
| 2026-04-16 11:06 | 41.80870 | 12.27011 | 12 ft | 7 kts | 339° |
| 2026-04-16 11:06 | 41.80873 | 12.27009 | 12 ft | 0 kts | 339° |
| 2026-04-16 11:09 | 41.80881 | 12.27005 | 14 ft | 4 kts | 339° |
| 2026-04-16 11:09 | 41.80939 | 12.26973 | 14 ft | 12 kts | 327° |
| 2026-04-16 11:09 | 41.80943 | 12.26869 | 13 ft | 13 kts | 249° |
| 2026-04-16 11:09 | 41.80849 | 12.26539 | 16 ft | 70 kts | 250° |
| 2026-04-16 11:10 | 41.80610 | 12.25666 | 16 ft | 128 kts | 250° |
| 2026-04-16 11:10 | 41.80241 | 12.24374 | 118 ft | 161 kts | 248° |
| 2026-04-16 11:10 | 41.79825 | 12.22972 | 645 ft | 164 kts | 249° |
| 2026-04-16 11:10 | 41.79443 | 12.21531 | 1232 ft | 165 kts | 252° |
| 2026-04-16 11:11 | 41.79254 | 12.19962 | 1606 ft | 182 kts | 269° |
| 2026-04-16 11:11 | 41.79217 | 12.18130 | 2009 ft | 208 kts | 269° |
| 2026-04-16 11:11 | 41.79175 | 12.16142 | 2433 ft | 219 kts | 266° |
| 2026-04-16 11:11 | 41.78613 | 12.14221 | 2878 ft | 232 kts | 227° |
| 2026-04-16 11:12 | 41.77407 | 12.12810 | 3554 ft | 234 kts | 221° |
| 2026-04-16 11:12 | 41.76170 | 12.11352 | 4012 ft | 239 kts | 223° |
| 2026-04-16 11:12 | 41.74953 | 12.09873 | 4561 ft | 231 kts | 223° |
| 2026-04-16 11:12 | 41.73788 | 12.08440 | 5416 ft | 225 kts | 223° |
| 2026-04-16 11:13 | 41.72633 | 12.07012 | 6105 ft | 228 kts | 223° |
| 2026-04-16 11:13 | 41.71462 | 12.05563 | 6786 ft | 230 kts | 222° |
| 2026-04-16 11:13 | 41.70113 | 12.04444 | 7390 ft | 233 kts | 191° |
| 2026-04-16 11:13 | 41.68495 | 12.04352 | 8027 ft | 235 kts | 177° |
| 2026-04-16 11:14 | 41.66846 | 12.04371 | 8703 ft | 238 kts | 178° |
| 2026-04-16 11:14 | 41.65181 | 12.04381 | 9433 ft | 240 kts | 178° |
| 2026-04-16 11:14 | 41.63498 | 12.04386 | 10142 ft | 243 kts | 177° |
| 2026-04-16 11:14 | 41.61818 | 12.04040 | 10763 ft | 252 kts | 206° |
| 2026-04-16 11:15 | 41.60345 | 12.02764 | 11451 ft | 253 kts | 204° |
| 2026-04-16 11:15 | 41.58628 | 12.02396 | 11956 ft | 259 kts | 167° |
| 2026-04-16 11:15 | 41.56990 | 12.03491 | 12174 ft | 277 kts | 132° |
| 2026-04-16 11:15 | 41.55829 | 12.05648 | 12406 ft | 299 kts | 122° |
| 2026-04-16 11:16 | 41.54573 | 12.07962 | 12585 ft | 324 kts | 126° |
| 2026-04-16 11:16 | 41.53117 | 12.10399 | 12769 ft | 347 kts | 128° |
| 2026-04-16 11:16 | 41.51503 | 12.12906 | 13197 ft | 361 kts | 130° |
| 2026-04-16 11:16 | 41.49802 | 12.15415 | 13875 ft | 367 kts | 131° |
| 2026-04-16 11:17 | 41.48047 | 12.17921 | 14572 ft | 371 kts | 131° |
| 2026-04-16 11:17 | 41.46261 | 12.20424 | 15284 ft | 375 kts | 131° |
| 2026-04-16 11:17 | 41.44445 | 12.22942 | 15972 ft | 379 kts | 132° |
| 2026-04-16 11:17 | 41.42604 | 12.25485 | 16654 ft | 384 kts | 132° |
| 2026-04-16 11:18 | 41.40736 | 12.28057 | 17323 ft | 388 kts | 132° |
| 2026-04-16 11:18 | 41.38848 | 12.30655 | 17988 ft | 393 kts | 132° |
| 2026-04-16 11:18 | 41.36937 | 12.33283 | 18597 ft | 397 kts | 132° |
| 2026-04-16 11:18 | 41.35004 | 12.35940 | 19208 ft | 400 kts | 132° |
| 2026-04-16 11:19 | 41.33059 | 12.38609 | 19839 ft | 402 kts | 132° |
| 2026-04-16 11:19 | 41.31104 | 12.41291 | 20467 ft | 405 kts | 132° |
| 2026-04-16 11:19 | 41.29140 | 12.43983 | 21094 ft | 407 kts | 132° |
| 2026-04-16 11:19 | 41.27163 | 12.46691 | 21672 ft | 410 kts | 132° |
| 2026-04-16 11:20 | 41.25195 | 12.49385 | 22213 ft | 413 kts | 132° |
| 2026-04-16 11:20 | 41.23164 | 12.52105 | 22753 ft | 418 kts | 136° |
| 2026-04-16 11:20 | 41.20695 | 12.54182 | 23245 ft | 426 kts | 156° |
| 2026-04-16 11:20 | 41.17894 | 12.55525 | 23826 ft | 428 kts | 159° |
| 2026-04-16 11:21 | 41.15067 | 12.56834 | 24263 ft | 431 kts | 159° |
| 2026-04-16 11:21 | 41.12228 | 12.58149 | 24707 ft | 433 kts | 159° |
| 2026-04-16 11:21 | 41.09377 | 12.59479 | 25158 ft | 435 kts | 159° |
| 2026-04-16 11:21 | 41.06511 | 12.60828 | 25608 ft | 437 kts | 158° |
| 2026-04-16 11:22 | 41.03636 | 12.62189 | 26017 ft | 440 kts | 158° |
| 2026-04-16 11:22 | 41.00743 | 12.63564 | 26425 ft | 442 kts | 158° |
| 2026-04-16 11:22 | 40.97843 | 12.64944 | 26867 ft | 444 kts | 158° |
| 2026-04-16 11:22 | 40.94935 | 12.66328 | 27285 ft | 445 kts | 158° |
| 2026-04-16 11:23 | 40.92010 | 12.67719 | 27680 ft | 447 kts | 158° |
| 2026-04-16 11:23 | 40.89077 | 12.69113 | 28064 ft | 449 kts | 158° |
| 2026-04-16 11:23 | 40.86128 | 12.70513 | 28444 ft | 451 kts | 158° |
| 2026-04-16 11:23 | 40.83164 | 12.71918 | 28822 ft | 453 kts | 158° |
| 2026-04-16 11:24 | 40.80190 | 12.73326 | 29183 ft | 455 kts | 158° |
| 2026-04-16 11:24 | 40.77207 | 12.74738 | 29529 ft | 457 kts | 158° |
| 2026-04-16 11:24 | 40.74211 | 12.76154 | 29870 ft | 458 kts | 158° |
| 2026-04-16 11:24 | 40.71203 | 12.77573 | 30224 ft | 459 kts | 158° |
| 2026-04-16 11:25 | 40.68200 | 12.78989 | 30622 ft | 458 kts | 158° |
| 2026-04-16 11:25 | 40.65206 | 12.80399 | 30983 ft | 457 kts | 158° |
| 2026-04-16 11:25 | 40.62240 | 12.81795 | 31263 ft | 459 kts | 158° |
| 2026-04-16 11:25 | 40.59225 | 12.83214 | 31489 ft | 462 kts | 158° |
| 2026-04-16 11:26 | 40.56194 | 12.84639 | 31795 ft | 462 kts | 158° |
| 2026-04-16 11:26 | 40.53168 | 12.86059 | 32163 ft | 461 kts | 158° |
| 2026-04-16 11:26 | 40.50144 | 12.87476 | 32494 ft | 461 kts | 158° |
| 2026-04-16 11:26 | 40.47113 | 12.88896 | 32776 ft | 463 kts | 158° |
| 2026-04-16 11:27 | 40.44071 | 12.90320 | 33057 ft | 463 kts | 158° |
| 2026-04-16 11:27 | 40.41032 | 12.91741 | 33383 ft | 463 kts | 158° |
| 2026-04-16 11:27 | 40.37992 | 12.93160 | 33696 ft | 464 kts | 158° |
| 2026-04-16 11:27 | 40.34943 | 12.94583 | 33952 ft | 465 kts | 158° |
| 2026-04-16 11:28 | 40.31893 | 12.96005 | 34224 ft | 466 kts | 158° |
| 2026-04-16 11:28 | 40.28839 | 12.97426 | 34498 ft | 465 kts | 158° |
| 2026-04-16 11:28 | 40.25792 | 12.98844 | 34756 ft | 465 kts | 158° |
| 2026-04-16 11:28 | 40.22739 | 13.00263 | 34997 ft | 466 kts | 158° |
| 2026-04-16 11:29 | 40.19686 | 13.01677 | 35243 ft | 466 kts | 159° |
| 2026-04-16 11:29 | 40.17646 | 13.02559 | 35420 ft | 466 kts | 160° |
| 2026-04-16 11:29 | 40.16955 | 13.02845 | 35485 ft | 466 kts | 160° |
| 2026-04-16 11:29 | 40.13850 | 13.04080 | 35724 ft | 467 kts | 161° |
| 2026-04-16 11:30 | 40.10728 | 13.05281 | 35944 ft | 468 kts | 161° |
| 2026-04-16 11:30 | 40.07603 | 13.06475 | 36091 ft | 470 kts | 161° |
| 2026-04-16 11:30 | 40.04450 | 13.07688 | 36078 ft | 473 kts | 161° |
| 2026-04-16 11:31 | 39.98145 | 13.10142 | 36079 ft | 471 kts | 161° |
| 2026-04-16 11:31 | 39.91921 | 13.12585 | 36080 ft | 465 kts | 161° |
| 2026-04-16 11:32 | 39.86777 | 13.14607 | 36095 ft | 464 kts | 161° |
| 2026-04-16 11:32 | 39.79604 | 13.17422 | 36079 ft | 463 kts | 161° |
| 2026-04-16 11:33 | 39.73447 | 13.19832 | 36080 ft | 461 kts | 161° |
| 2026-04-16 11:33 | 39.68299 | 13.21842 | 36078 ft | 461 kts | 161° |
| 2026-04-16 11:34 | 39.62203 | 13.24219 | 36080 ft | 460 kts | 161° |
| 2026-04-16 11:34 | 39.56067 | 13.26606 | 36079 ft | 460 kts | 161° |
| 2026-04-16 11:35 | 39.49934 | 13.28989 | 36078 ft | 460 kts | 161° |
| 2026-04-16 11:35 | 39.43796 | 13.31369 | 36083 ft | 461 kts | 161° |
| 2026-04-16 11:36 | 39.37637 | 13.33752 | 36077 ft | 462 kts | 161° |
| 2026-04-16 11:36 | 39.31477 | 13.36132 | 36079 ft | 462 kts | 161° |
| 2026-04-16 11:37 | 39.25304 | 13.38512 | 36078 ft | 463 kts | 161° |
| 2026-04-16 11:37 | 39.19133 | 13.40886 | 36074 ft | 463 kts | 161° |
| 2026-04-16 11:38 | 39.12946 | 13.43263 | 36075 ft | 464 kts | 161° |
| 2026-04-16 11:38 | 39.06759 | 13.45635 | 36072 ft | 464 kts | 161° |
| 2026-04-16 11:39 | 39.00573 | 13.48001 | 36077 ft | 463 kts | 162° |
| 2026-04-16 11:39 | 38.94397 | 13.50360 | 36077 ft | 463 kts | 162° |
| 2026-04-16 11:40 | 38.88267 | 13.52697 | 36067 ft | 461 kts | 162° |
| 2026-04-16 11:40 | 38.82379 | 13.55796 | 36065 ft | 457 kts | 148° |
| 2026-04-16 11:41 | 38.76961 | 13.60014 | 36060 ft | 455 kts | 147° |
| 2026-04-16 11:41 | 38.71567 | 13.64239 | 36065 ft | 454 kts | 147° |
| 2026-04-16 11:42 | 38.66164 | 13.68404 | 36070 ft | 453 kts | 147° |
| 2026-04-16 11:42 | 38.60751 | 13.72538 | 36068 ft | 453 kts | 148° |
| 2026-04-16 11:43 | 38.55335 | 13.76657 | 36072 ft | 453 kts | 148° |
| 2026-04-16 11:43 | 38.49888 | 13.80796 | 35454 ft | 461 kts | 148° |
| 2026-04-16 11:43 | 38.47136 | 13.82884 | 34846 ft | 459 kts | 148° |
| 2026-04-16 11:44 | 38.44385 | 13.84969 | 34201 ft | 459 kts | 148° |
| 2026-04-16 11:44 | 38.41642 | 13.87047 | 33440 ft | 457 kts | 148° |
| 2026-04-16 11:44 | 38.38920 | 13.89107 | 32825 ft | 453 kts | 148° |
| 2026-04-16 11:44 | 38.36207 | 13.91159 | 31952 ft | 454 kts | 148° |
| 2026-04-16 11:45 | 38.33496 | 13.93206 | 31311 ft | 451 kts | 148° |
| 2026-04-16 11:45 | 38.30815 | 13.95230 | 30789 ft | 446 kts | 148° |
| 2026-04-16 11:45 | 38.28161 | 13.97231 | 30270 ft | 441 kts | 148° |
| 2026-04-16 11:45 | 38.25538 | 13.99207 | 29691 ft | 436 kts | 148° |
| 2026-04-16 11:46 | 38.22975 | 14.01136 | 29164 ft | 430 kts | 148° |
| 2026-04-16 11:46 | 38.20420 | 14.03058 | 28637 ft | 424 kts | 148° |
| 2026-04-16 11:46 | 38.17898 | 14.04954 | 28118 ft | 419 kts | 148° |
| 2026-04-16 11:46 | 38.15402 | 14.06828 | 27582 ft | 414 kts | 148° |
| 2026-04-16 11:47 | 38.12932 | 14.08681 | 27082 ft | 410 kts | 148° |
| 2026-04-16 11:47 | 38.10489 | 14.10513 | 26568 ft | 406 kts | 148° |
| 2026-04-16 11:47 | 38.08068 | 14.12327 | 26068 ft | 403 kts | 148° |
| 2026-04-16 11:47 | 38.05662 | 14.14128 | 25574 ft | 400 kts | 148° |
| 2026-04-16 11:48 | 38.03276 | 14.15914 | 25075 ft | 397 kts | 148° |
| 2026-04-16 11:48 | 38.00903 | 14.17688 | 24596 ft | 394 kts | 148° |
| 2026-04-16 11:48 | 37.98545 | 14.19449 | 24099 ft | 392 kts | 148° |
| 2026-04-16 11:48 | 37.96200 | 14.21200 | 23611 ft | 390 kts | 148° |
| 2026-04-16 11:49 | 37.93862 | 14.22943 | 23050 ft | 388 kts | 147° |
| 2026-04-16 11:49 | 37.91541 | 14.24673 | 22528 ft | 386 kts | 147° |
| 2026-04-16 11:49 | 37.89233 | 14.26391 | 22025 ft | 383 kts | 147° |
| 2026-04-16 11:49 | 37.86944 | 14.28095 | 21527 ft | 380 kts | 147° |
| 2026-04-16 11:50 | 37.84669 | 14.29786 | 21048 ft | 377 kts | 147° |
| 2026-04-16 11:50 | 37.82408 | 14.31467 | 20568 ft | 375 kts | 147° |
| 2026-04-16 11:50 | 37.80199 | 14.33107 | 20106 ft | 372 kts | 147° |
| 2026-04-16 11:50 | 37.77976 | 14.34757 | 19637 ft | 369 kts | 147° |
| 2026-04-16 11:51 | 37.75767 | 14.36394 | 19182 ft | 367 kts | 147° |
| 2026-04-16 11:51 | 37.73570 | 14.38022 | 18717 ft | 364 kts | 147° |
| 2026-04-16 11:51 | 37.71389 | 14.39637 | 18256 ft | 362 kts | 147° |
| 2026-04-16 11:51 | 37.69217 | 14.41244 | 17724 ft | 361 kts | 147° |
| 2026-04-16 11:52 | 37.67057 | 14.42841 | 17236 ft | 358 kts | 146° |
| 2026-04-16 11:52 | 37.64915 | 14.44424 | 16759 ft | 355 kts | 146° |
| 2026-04-16 11:52 | 37.62787 | 14.45981 | 16287 ft | 353 kts | 149° |
| 2026-04-16 11:52 | 37.60454 | 14.46977 | 15856 ft | 356 kts | 167° |
| 2026-04-16 11:53 | 37.58021 | 14.47462 | 15424 ft | 353 kts | 168° |
| 2026-04-16 11:53 | 37.55598 | 14.47926 | 14962 ft | 352 kts | 169° |
| 2026-04-16 11:53 | 37.53182 | 14.48392 | 14512 ft | 350 kts | 168° |
| 2026-04-16 11:53 | 37.50810 | 14.48857 | 14067 ft | 349 kts | 168° |
| 2026-04-16 11:54 | 37.48413 | 14.49335 | 13572 ft | 348 kts | 168° |
| 2026-04-16 11:54 | 37.46025 | 14.49816 | 13080 ft | 346 kts | 168° |
| 2026-04-16 11:54 | 37.43654 | 14.50297 | 12625 ft | 344 kts | 168° |
| 2026-04-16 11:54 | 37.41296 | 14.50776 | 12175 ft | 342 kts | 167° |
| 2026-04-16 11:55 | 37.38953 | 14.51254 | 11730 ft | 340 kts | 168° |
| 2026-04-16 11:55 | 37.36617 | 14.51731 | 11290 ft | 339 kts | 168° |
| 2026-04-16 11:55 | 37.34286 | 14.52207 | 10843 ft | 338 kts | 168° |
| 2026-04-16 11:55 | 37.32000 | 14.52671 | 10683 ft | 327 kts | 167° |
| 2026-04-16 11:56 | 37.29790 | 14.53119 | 10531 ft | 316 kts | 167° |
| 2026-04-16 11:56 | 37.27658 | 14.53551 | 10403 ft | 305 kts | 167° |
| 2026-04-16 11:56 | 37.25595 | 14.53970 | 10277 ft | 296 kts | 167° |
| 2026-04-16 11:56 | 37.23589 | 14.54378 | 10148 ft | 287 kts | 167° |
| 2026-04-16 11:57 | 37.21641 | 14.54773 | 10009 ft | 279 kts | 166° |
| 2026-04-16 11:57 | 37.19753 | 14.55159 | 9717 ft | 278 kts | 167° |
| 2026-04-16 11:57 | 37.17851 | 14.55546 | 9432 ft | 276 kts | 167° |
| 2026-04-16 11:57 | 37.15962 | 14.55932 | 9131 ft | 274 kts | 168° |
| 2026-04-16 11:58 | 37.14088 | 14.56312 | 8838 ft | 272 kts | 168° |
| 2026-04-16 11:58 | 37.12228 | 14.56689 | 8555 ft | 270 kts | 168° |
| 2026-04-16 11:58 | 37.10379 | 14.57064 | 8270 ft | 268 kts | 167° |
| 2026-04-16 11:58 | 37.08542 | 14.57435 | 7982 ft | 267 kts | 166° |
| 2026-04-16 11:59 | 37.06721 | 14.57805 | 7777 ft | 262 kts | 167° |
| 2026-04-16 11:59 | 37.04949 | 14.58161 | 7647 ft | 255 kts | 166° |
| 2026-04-16 11:59 | 37.03224 | 14.58510 | 7531 ft | 247 kts | 167° |
| 2026-04-16 11:59 | 37.01552 | 14.58849 | 7426 ft | 240 kts | 167° |
| 2026-04-16 12:00 | 36.99896 | 14.58843 | 7228 ft | 242 kts | 194° |
| 2026-04-16 12:00 | 36.98487 | 14.57755 | 7090 ft | 242 kts | 225° |
| 2026-04-16 12:00 | 36.97609 | 14.55974 | 6890 ft | 242 kts | 247° |
| 2026-04-16 12:00 | 36.97082 | 14.53982 | 6666 ft | 241 kts | 252° |
| 2026-04-16 12:01 | 36.96613 | 14.51972 | 6435 ft | 241 kts | 252° |
| 2026-04-16 12:01 | 36.96144 | 14.49967 | 6196 ft | 240 kts | 252° |
| 2026-04-16 12:01 | 36.95665 | 14.47968 | 5950 ft | 239 kts | 252° |
| 2026-04-16 12:02 | 36.94702 | 14.44034 | 5497 ft | 237 kts | 251° |
| 2026-04-16 12:02 | 36.94217 | 14.42074 | 5262 ft | 236 kts | 251° |
| 2026-04-16 12:02 | 36.93576 | 14.40205 | 5002 ft | 233 kts | 227° |
| 2026-04-16 12:02 | 36.92298 | 14.39110 | 4807 ft | 218 kts | 192° |
| 2026-04-16 12:03 | 36.90844 | 14.39012 | 4564 ft | 205 kts | 165° |
| 2026-04-16 12:03 | 36.89587 | 14.39698 | 4330 ft | 195 kts | 139° |
| 2026-04-16 12:03 | 36.88730 | 14.40965 | 4106 ft | 190 kts | 114° |
| 2026-04-16 12:03 | 36.88415 | 14.42531 | 3897 ft | 186 kts | 90° |
| 2026-04-16 12:04 | 36.88671 | 14.44080 | 3791 ft | 183 kts | 60° |
| 2026-04-16 12:04 | 36.89416 | 14.45411 | 3573 ft | 192 kts | 57° |
| 2026-04-16 12:04 | 36.90207 | 14.46757 | 3338 ft | 192 kts | 54° |
| 2026-04-16 12:04 | 36.91038 | 14.48043 | 3084 ft | 189 kts | 52° |
| 2026-04-16 12:05 | 36.91871 | 14.49297 | 2839 ft | 185 kts | 52° |
| 2026-04-16 12:05 | 36.92691 | 14.50529 | 2588 ft | 182 kts | 52° |
| 2026-04-16 12:05 | 36.93480 | 14.51716 | 2354 ft | 173 kts | 52° |
| 2026-04-16 12:05 | 36.94227 | 14.52838 | 2111 ft | 162 kts | 52° |
| 2026-04-16 12:06 | 36.94917 | 14.53876 | 1906 ft | 153 kts | 52° |
| 2026-04-16 12:06 | 36.95574 | 14.54863 | 1725 ft | 142 kts | 52° |
| 2026-04-16 12:06 | 36.96199 | 14.55804 | 1534 ft | 139 kts | 52° |
| 2026-04-16 12:06 | 36.96821 | 14.56741 | 1348 ft | 141 kts | 53° |
| 2026-04-16 12:07 | 36.97481 | 14.57721 | 1151 ft | 159 kts | 52° |
| 2026-04-16 12:07 | 36.98164 | 14.58729 | 881 ft | 145 kts | 55° |
| 2026-04-16 12:07 | 36.98775 | 14.59670 | 714 ft | 132 kts | 53° |
| 2026-04-16 12:07 | 36.99313 | 14.60480 | 697 ft | 100 kts | 50° |
| 2026-04-16 12:08 | 36.99652 | 14.60989 | 717 ft | 65 kts | 50° |
| 2026-04-16 12:08 | 36.99861 | 14.61289 | 731 ft | 28 kts | 49° |
| 2026-04-16 12:08 | 37.00014 | 14.61426 | 740 ft | 25 kts | 25° |
| 2026-04-16 12:08 | 37.00103 | 14.61461 | 744 ft | 7 kts | 348° |
| 2026-04-16 12:09 | 37.00136 | 14.61419 | 741 ft | 7 kts | 289° |
| 2026-04-16 12:09 | 37.00130 | 14.61377 | 740 ft | 2 kts | 225° |
| 2026-04-16 12:09 | 37.00083 | 14.61315 | 740 ft | 19 kts | 229° |
| 2026-04-16 12:09 | 36.99971 | 14.61146 | 732 ft | 28 kts | 230° |
| 2026-04-16 12:10 | 36.99844 | 14.60954 | 727 ft | 23 kts | 230° |
| 2026-04-16 12:10 | 36.99777 | 14.60853 | 723 ft | 4 kts | 230° |
| 2026-04-16 12:10 | 36.99779 | 14.60819 | 721 ft | 5 kts | 314° |
| 2026-04-16 12:10 | 36.99785 | 14.60811 | 721 ft | 0 kts | 317° |
| 2026-04-16 12:11 | 36.99787 | 14.60810 | 722 ft | 2 kts | 318° |
| 2026-04-16 12:11 | 36.99805 | 14.60794 | 720 ft | 2 kts | 341° |
| 2026-04-16 12:11 | 36.99808 | 14.60794 | 720 ft | 0 kts | 354° |
| 2026-04-16 12:11 | 36.99809 | 14.60794 | 720 ft | 0 kts | 352° |